sensor_id;sensor_type;location;lat;lon;timestamp;P1;durP1;ratioP1;P2;durP2;ratioP2
75423;SDS011;64005;55.160;36.002;2023-04-12T00:01:16;20.98;;;9.93;;
75423;SDS011;64005;55.160;36.002;2023-04-12T00:03:45;18.30;;;8.85;;
75423;SDS011;64005;55.160;36.002;2023-04-12T00:06:14;21.95;;;10.98;;
75423;SDS011;64005;55.160;36.002;2023-04-12T00:08:42;22.52;;;10.68;;
75423;SDS011;64005;55.160;36.002;2023-04-12T00:11:11;21.30;;;10.07;;
75423;SDS011;64005;55.160;36.002;2023-04-12T00:13:38;23.38;;;10.70;;
75423;SDS011;64005;55.160;36.002;2023-04-12T00:16:06;18.23;;;9.48;;
75423;SDS011;64005;55.160;36.002;2023-04-12T00:18:35;25.02;;;10.05;;
75423;SDS011;64005;55.160;36.002;2023-04-12T00:21:04;17.75;;;10.00;;
75423;SDS011;64005;55.160;36.002;2023-04-12T00:23:33;19.40;;;9.38;;
75423;SDS011;64005;55.160;36.002;2023-04-12T00:26:02;21.05;;;10.52;;
75423;SDS011;64005;55.160;36.002;2023-04-12T00:28:30;24.65;;;10.57;;
75423;SDS011;64005;55.160;36.002;2023-04-12T00:30:57;20.45;;;9.48;;
75423;SDS011;64005;55.160;36.002;2023-04-12T00:33:25;23.05;;;10.30;;
75423;SDS011;64005;55.160;36.002;2023-04-12T00:35:52;16.63;;;8.73;;
75423;SDS011;64005;55.160;36.002;2023-04-12T00:38:21;26.80;;;10.30;;
75423;SDS011;64005;55.160;36.002;2023-04-12T00:40:48;18.48;;;9.13;;
75423;SDS011;64005;55.160;36.002;2023-04-12T00:43:16;19.60;;;9.75;;
75423;SDS011;64005;55.160;36.002;2023-04-12T00:45:44;18.92;;;8.63;;
75423;SDS011;64005;55.160;36.002;2023-04-12T00:48:12;26.30;;;9.10;;
75423;SDS011;64005;55.160;36.002;2023-04-12T00:50:41;19.05;;;8.38;;
75423;SDS011;64005;55.160;36.002;2023-04-12T00:53:09;19.00;;;8.45;;
75423;SDS011;64005;55.160;36.002;2023-04-12T00:55:40;19.63;;;8.45;;
75423;SDS011;64005;55.160;36.002;2023-04-12T00:58:09;19.35;;;8.05;;
75423;SDS011;64005;55.160;36.002;2023-04-12T01:00:37;28.42;;;9.38;;
75423;SDS011;64005;55.160;36.002;2023-04-12T01:03:04;20.00;;;8.55;;
75423;SDS011;64005;55.160;36.002;2023-04-12T01:05:34;16.40;;;8.98;;
75423;SDS011;64005;55.160;36.002;2023-04-12T01:08:12;15.52;;;8.70;;
75423;SDS011;64005;55.160;36.002;2023-04-12T01:10:52;19.42;;;8.70;;
75423;SDS011;64005;55.160;36.002;2023-04-12T01:13:25;20.83;;;8.23;;
75423;SDS011;64005;55.160;36.002;2023-04-12T01:15:58;18.23;;;8.20;;
75423;SDS011;64005;55.160;36.002;2023-04-12T01:18:31;17.13;;;7.70;;
75423;SDS011;64005;55.160;36.002;2023-04-12T01:21:07;19.20;;;8.48;;
75423;SDS011;64005;55.160;36.002;2023-04-12T01:23:42;18.98;;;9.13;;
75423;SDS011;64005;55.160;36.002;2023-04-12T01:26:29;17.70;;;7.63;;
75423;SDS011;64005;55.160;36.002;2023-04-12T01:29:03;20.33;;;9.23;;
75423;SDS011;64005;55.160;36.002;2023-04-12T01:31:36;17.50;;;7.78;;
75423;SDS011;64005;55.160;36.002;2023-04-12T01:34:07;18.35;;;7.78;;
75423;SDS011;64005;55.160;36.002;2023-04-12T01:36:36;21.88;;;8.23;;
75423;SDS011;64005;55.160;36.002;2023-04-12T01:39:05;15.90;;;7.75;;
75423;SDS011;64005;55.160;36.002;2023-04-12T01:41:37;15.68;;;7.05;;
75423;SDS011;64005;55.160;36.002;2023-04-12T01:44:09;14.00;;;7.25;;
75423;SDS011;64005;55.160;36.002;2023-04-12T01:46:39;19.60;;;8.15;;
75423;SDS011;64005;55.160;36.002;2023-04-12T01:49:08;18.67;;;8.40;;
75423;SDS011;64005;55.160;36.002;2023-04-12T01:51:38;16.60;;;8.73;;
75423;SDS011;64005;55.160;36.002;2023-04-12T01:54:16;16.73;;;7.30;;
75423;SDS011;64005;55.160;36.002;2023-04-12T01:56:49;17.17;;;8.32;;
75423;SDS011;64005;55.160;36.002;2023-04-12T01:59:25;14.80;;;8.20;;
75423;SDS011;64005;55.160;36.002;2023-04-12T02:01:54;17.77;;;7.03;;
75423;SDS011;64005;55.160;36.002;2023-04-12T02:04:22;14.27;;;7.55;;
75423;SDS011;64005;55.160;36.002;2023-04-12T02:06:52;15.90;;;8.82;;
75423;SDS011;64005;55.160;36.002;2023-04-12T02:09:20;17.05;;;8.10;;
75423;SDS011;64005;55.160;36.002;2023-04-12T02:11:48;19.10;;;7.68;;
75423;SDS011;64005;55.160;36.002;2023-04-12T02:14:16;16.10;;;7.40;;
75423;SDS011;64005;55.160;36.002;2023-04-12T02:16:44;16.20;;;7.63;;
75423;SDS011;64005;55.160;36.002;2023-04-12T02:19:12;14.07;;;7.25;;
75423;SDS011;64005;55.160;36.002;2023-04-12T02:21:40;17.75;;;7.18;;
75423;SDS011;64005;55.160;36.002;2023-04-12T02:24:08;16.38;;;6.88;;
75423;SDS011;64005;55.160;36.002;2023-04-12T02:26:36;21.23;;;8.07;;
75423;SDS011;64005;55.160;36.002;2023-04-12T02:29:04;16.80;;;8.45;;
75423;SDS011;64005;55.160;36.002;2023-04-12T02:31:33;19.02;;;7.25;;
75423;SDS011;64005;55.160;36.002;2023-04-12T02:34:04;14.48;;;7.63;;
75423;SDS011;64005;55.160;36.002;2023-04-12T02:36:32;14.68;;;7.40;;
75423;SDS011;64005;55.160;36.002;2023-04-12T02:39:02;16.77;;;8.13;;
75423;SDS011;64005;55.160;36.002;2023-04-12T02:41:29;17.75;;;8.75;;
75423;SDS011;64005;55.160;36.002;2023-04-12T02:43:57;16.88;;;7.88;;
75423;SDS011;64005;55.160;36.002;2023-04-12T02:46:24;15.50;;;8.15;;
75423;SDS011;64005;55.160;36.002;2023-04-12T02:48:52;15.88;;;7.43;;
75423;SDS011;64005;55.160;36.002;2023-04-12T02:51:21;16.98;;;8.80;;
75423;SDS011;64005;55.160;36.002;2023-04-12T02:53:49;16.65;;;7.80;;
75423;SDS011;64005;55.160;36.002;2023-04-12T02:56:16;20.00;;;8.15;;
75423;SDS011;64005;55.160;36.002;2023-04-12T02:58:44;16.45;;;8.27;;
75423;SDS011;64005;55.160;36.002;2023-04-12T03:01:11;21.63;;;8.85;;
75423;SDS011;64005;55.160;36.002;2023-04-12T03:03:39;14.48;;;8.57;;
75423;SDS011;64005;55.160;36.002;2023-04-12T03:06:06;15.45;;;8.20;;
75423;SDS011;64005;55.160;36.002;2023-04-12T03:08:36;14.85;;;7.82;;
75423;SDS011;64005;55.160;36.002;2023-04-12T03:11:04;17.30;;;8.82;;
75423;SDS011;64005;55.160;36.002;2023-04-12T03:13:32;18.00;;;7.50;;
75423;SDS011;64005;55.160;36.002;2023-04-12T03:15:59;14.98;;;8.15;;
75423;SDS011;64005;55.160;36.002;2023-04-12T03:18:47;16.08;;;8.40;;
75423;SDS011;64005;55.160;36.002;2023-04-12T03:21:16;20.80;;;8.52;;
75423;SDS011;64005;55.160;36.002;2023-04-12T03:23:45;17.98;;;8.57;;
75423;SDS011;64005;55.160;36.002;2023-04-12T03:26:12;18.60;;;8.68;;
75423;SDS011;64005;55.160;36.002;2023-04-12T03:28:40;19.05;;;8.35;;
75423;SDS011;64005;55.160;36.002;2023-04-12T03:31:07;17.25;;;8.23;;
75423;SDS011;64005;55.160;36.002;2023-04-12T03:33:36;21.35;;;9.30;;
75423;SDS011;64005;55.160;36.002;2023-04-12T03:36:04;19.77;;;9.15;;
75423;SDS011;64005;55.160;36.002;2023-04-12T03:38:33;20.58;;;8.95;;
75423;SDS011;64005;55.160;36.002;2023-04-12T03:41:01;22.08;;;9.75;;
75423;SDS011;64005;55.160;36.002;2023-04-12T03:43:29;19.00;;;9.50;;
75423;SDS011;64005;55.160;36.002;2023-04-12T03:46:01;16.42;;;7.93;;
75423;SDS011;64005;55.160;36.002;2023-04-12T03:48:29;20.27;;;8.73;;
75423;SDS011;64005;55.160;36.002;2023-04-12T03:50:57;16.58;;;9.43;;
75423;SDS011;64005;55.160;36.002;2023-04-12T03:53:25;19.90;;;8.95;;
75423;SDS011;64005;55.160;36.002;2023-04-12T03:55:55;18.83;;;9.10;;
75423;SDS011;64005;55.160;36.002;2023-04-12T03:58:24;17.08;;;8.95;;
75423;SDS011;64005;55.160;36.002;2023-04-12T04:00:52;18.63;;;8.57;;
75423;SDS011;64005;55.160;36.002;2023-04-12T04:03:19;21.50;;;9.00;;
75423;SDS011;64005;55.160;36.002;2023-04-12T04:05:51;20.50;;;8.82;;
75423;SDS011;64005;55.160;36.002;2023-04-12T04:08:18;20.60;;;8.00;;
75423;SDS011;64005;55.160;36.002;2023-04-12T04:10:46;16.63;;;8.30;;
75423;SDS011;64005;55.160;36.002;2023-04-12T04:13:13;14.23;;;7.95;;
75423;SDS011;64005;55.160;36.002;2023-04-12T04:15:42;14.25;;;6.78;;
75423;SDS011;64005;55.160;36.002;2023-04-12T04:18:10;17.00;;;8.07;;
75423;SDS011;64005;55.160;36.002;2023-04-12T04:20:37;19.90;;;8.75;;
75423;SDS011;64005;55.160;36.002;2023-04-12T04:23:05;18.67;;;8.48;;
75423;SDS011;64005;55.160;36.002;2023-04-12T04:25:34;21.80;;;8.75;;
75423;SDS011;64005;55.160;36.002;2023-04-12T04:28:04;21.65;;;8.57;;
75423;SDS011;64005;55.160;36.002;2023-04-12T04:30:32;18.77;;;9.55;;
75423;SDS011;64005;55.160;36.002;2023-04-12T04:33:04;19.48;;;8.13;;
75423;SDS011;64005;55.160;36.002;2023-04-12T04:35:32;20.90;;;9.43;;
75423;SDS011;64005;55.160;36.002;2023-04-12T04:37:59;16.77;;;8.13;;
75423;SDS011;64005;55.160;36.002;2023-04-12T04:40:27;16.88;;;8.55;;
75423;SDS011;64005;55.160;36.002;2023-04-12T04:42:54;18.80;;;8.88;;
75423;SDS011;64005;55.160;36.002;2023-04-12T04:45:22;15.68;;;8.32;;
75423;SDS011;64005;55.160;36.002;2023-04-12T04:47:51;18.48;;;8.90;;
75423;SDS011;64005;55.160;36.002;2023-04-12T04:50:21;17.48;;;8.35;;
75423;SDS011;64005;55.160;36.002;2023-04-12T04:52:50;17.45;;;8.48;;
75423;SDS011;64005;55.160;36.002;2023-04-12T04:55:18;18.27;;;8.25;;
75423;SDS011;64005;55.160;36.002;2023-04-12T04:57:46;16.70;;;8.38;;
75423;SDS011;64005;55.160;36.002;2023-04-12T05:00:14;16.27;;;7.90;;
75423;SDS011;64005;55.160;36.002;2023-04-12T05:02:42;18.75;;;7.97;;
75423;SDS011;64005;55.160;36.002;2023-04-12T05:05:10;14.02;;;7.80;;
75423;SDS011;64005;55.160;36.002;2023-04-12T05:07:41;21.92;;;8.55;;
75423;SDS011;64005;55.160;36.002;2023-04-12T05:10:09;18.00;;;8.98;;
75423;SDS011;64005;55.160;36.002;2023-04-12T05:12:37;17.20;;;8.85;;
75423;SDS011;64005;55.160;36.002;2023-04-12T05:15:05;19.92;;;8.77;;
75423;SDS011;64005;55.160;36.002;2023-04-12T05:17:33;17.90;;;8.68;;
75423;SDS011;64005;55.160;36.002;2023-04-12T05:20:01;19.63;;;9.77;;
75423;SDS011;64005;55.160;36.002;2023-04-12T05:22:30;20.63;;;9.52;;
75423;SDS011;64005;55.160;36.002;2023-04-12T05:24:59;23.20;;;9.45;;
75423;SDS011;64005;55.160;36.002;2023-04-12T05:27:29;20.50;;;8.95;;
75423;SDS011;64005;55.160;36.002;2023-04-12T05:29:56;19.77;;;8.73;;
75423;SDS011;64005;55.160;36.002;2023-04-12T05:32:24;16.30;;;8.75;;
75423;SDS011;64005;55.160;36.002;2023-04-12T05:35:04;18.63;;;9.13;;
75423;SDS011;64005;55.160;36.002;2023-04-12T05:37:33;20.30;;;9.02;;
75423;SDS011;64005;55.160;36.002;2023-04-12T05:40:02;18.60;;;9.13;;
75423;SDS011;64005;55.160;36.002;2023-04-12T05:42:31;19.83;;;9.48;;
75423;SDS011;64005;55.160;36.002;2023-04-12T05:44:59;19.52;;;9.00;;
75423;SDS011;64005;55.160;36.002;2023-04-12T05:47:27;15.25;;;8.45;;
75423;SDS011;64005;55.160;36.002;2023-04-12T05:52:29;20.08;;;8.90;;
75423;SDS011;64005;55.160;36.002;2023-04-12T06:01:48;15.88;;;7.65;;
75423;SDS011;64005;55.160;36.002;2023-04-12T06:29:30;19.90;;;8.60;;
75423;SDS011;64005;55.160;36.002;2023-04-12T06:34:57;15.95;;;7.63;;
75423;SDS011;64005;55.160;36.002;2023-04-12T06:47:47;21.08;;;8.73;;
75423;SDS011;64005;55.160;36.002;2023-04-12T06:50:15;15.05;;;7.78;;
75423;SDS011;64005;55.160;36.002;2023-04-12T06:52:56;19.05;;;8.35;;
75423;SDS011;64005;55.160;36.002;2023-04-12T06:55:31;18.55;;;8.23;;
75423;SDS011;64005;55.160;36.002;2023-04-12T07:04:20;14.80;;;7.93;;
75423;SDS011;64005;55.160;36.002;2023-04-12T07:06:48;13.75;;;7.50;;
75423;SDS011;64005;55.160;36.002;2023-04-12T07:12:58;16.42;;;7.93;;
75423;SDS011;64005;55.160;36.002;2023-04-12T07:15:28;13.98;;;7.18;;
75423;SDS011;64005;55.160;36.002;2023-04-12T07:33:28;12.23;;;6.05;;
75423;SDS011;64005;55.160;36.002;2023-04-12T07:35:56;11.80;;;6.68;;
75423;SDS011;64005;55.160;36.002;2023-04-12T07:43:29;10.18;;;5.85;;
75423;SDS011;64005;55.160;36.002;2023-04-12T07:45:57;14.98;;;6.50;;
75423;SDS011;64005;55.160;36.002;2023-04-12T07:51:37;24.98;;;10.20;;
75423;SDS011;64005;55.160;36.002;2023-04-12T07:54:07;12.20;;;6.32;;
75423;SDS011;64005;55.160;36.002;2023-04-12T08:48:13;10.48;;;4.43;;
75423;SDS011;64005;55.160;36.002;2023-04-12T09:01:58;7.13;;;3.22;;
75423;SDS011;64005;55.160;36.002;2023-04-12T09:53:36;8.13;;;4.25;;
75423;SDS011;64005;55.160;36.002;2023-04-12T09:56:12;9.80;;;4.95;;
75423;SDS011;64005;55.160;36.002;2023-04-12T10:21:59;8.52;;;3.75;;
75423;SDS011;64005;55.160;36.002;2023-04-12T10:24:27;8.23;;;4.38;;
75423;SDS011;64005;55.160;36.002;2023-04-12T10:29:39;9.30;;;4.68;;
75423;SDS011;64005;55.160;36.002;2023-04-12T10:32:17;9.35;;;5.30;;
75423;SDS011;64005;55.160;36.002;2023-04-12T10:37:19;9.18;;;4.82;;
75423;SDS011;64005;55.160;36.002;2023-04-12T10:40:02;9.43;;;5.05;;
75423;SDS011;64005;55.160;36.002;2023-04-12T10:42:30;9.35;;;4.65;;
75423;SDS011;64005;55.160;36.002;2023-04-12T10:48:27;7.85;;;3.88;;
75423;SDS011;64005;55.160;36.002;2023-04-12T10:51:15;10.15;;;4.25;;
75423;SDS011;64005;55.160;36.002;2023-04-12T10:53:49;9.32;;;4.93;;
75423;SDS011;64005;55.160;36.002;2023-04-12T12:12:10;7.95;;;3.92;;
75423;SDS011;64005;55.160;36.002;2023-04-12T12:14:45;7.65;;;4.43;;
75423;SDS011;64005;55.160;36.002;2023-04-12T12:17:13;12.02;;;4.50;;
75423;SDS011;64005;55.160;36.002;2023-04-12T12:19:41;11.82;;;4.45;;
75423;SDS011;64005;55.160;36.002;2023-04-12T12:22:10;6.90;;;3.83;;
75423;SDS011;64005;55.160;36.002;2023-04-12T12:24:43;10.40;;;4.72;;
75423;SDS011;64005;55.160;36.002;2023-04-12T12:27:13;8.48;;;4.53;;
75423;SDS011;64005;55.160;36.002;2023-04-12T12:29:47;10.70;;;4.40;;
75423;SDS011;64005;55.160;36.002;2023-04-12T13:31:28;9.57;;;3.72;;
75423;SDS011;64005;55.160;36.002;2023-04-12T13:33:56;9.65;;;3.95;;
75423;SDS011;64005;55.160;36.002;2023-04-12T13:36:34;8.60;;;4.15;;
75423;SDS011;64005;55.160;36.002;2023-04-12T13:39:08;8.20;;;3.90;;
75423;SDS011;64005;55.160;36.002;2023-04-12T14:00:46;9.20;;;3.85;;
75423;SDS011;64005;55.160;36.002;2023-04-12T14:03:17;8.70;;;4.30;;
75423;SDS011;64005;55.160;36.002;2023-04-12T14:05:45;8.27;;;4.05;;
75423;SDS011;64005;55.160;36.002;2023-04-12T14:08:14;9.50;;;4.30;;
75423;SDS011;64005;55.160;36.002;2023-04-12T14:13:17;11.80;;;4.40;;
75423;SDS011;64005;55.160;36.002;2023-04-12T14:18:35;12.52;;;4.25;;
75423;SDS011;64005;55.160;36.002;2023-04-12T14:21:09;9.55;;;4.07;;
75423;SDS011;64005;55.160;36.002;2023-04-12T14:31:43;11.23;;;4.57;;
75423;SDS011;64005;55.160;36.002;2023-04-12T14:34:12;8.88;;;4.10;;
75423;SDS011;64005;55.160;36.002;2023-04-12T14:36:50;10.70;;;5.22;;
75423;SDS011;64005;55.160;36.002;2023-04-12T14:39:19;9.40;;;4.93;;
75423;SDS011;64005;55.160;36.002;2023-04-12T14:41:52;9.18;;;4.50;;
75423;SDS011;64005;55.160;36.002;2023-04-12T14:44:22;10.20;;;5.38;;
75423;SDS011;64005;55.160;36.002;2023-04-12T14:46:53;8.82;;;4.82;;
75423;SDS011;64005;55.160;36.002;2023-04-12T14:49:29;10.70;;;5.57;;
75423;SDS011;64005;55.160;36.002;2023-04-12T14:52:00;9.43;;;5.72;;
75423;SDS011;64005;55.160;36.002;2023-04-12T14:54:34;10.65;;;5.80;;
75423;SDS011;64005;55.160;36.002;2023-04-12T14:57:06;10.38;;;5.95;;
75423;SDS011;64005;55.160;36.002;2023-04-12T14:59:39;12.40;;;6.13;;
75423;SDS011;64005;55.160;36.002;2023-04-12T15:02:14;14.98;;;7.70;;
75423;SDS011;64005;55.160;36.002;2023-04-12T15:04:48;11.20;;;6.68;;
75423;SDS011;64005;55.160;36.002;2023-04-12T15:07:20;13.55;;;7.10;;
75423;SDS011;64005;55.160;36.002;2023-04-12T15:09:52;13.13;;;6.75;;
75423;SDS011;64005;55.160;36.002;2023-04-12T15:12:24;14.00;;;6.45;;
75423;SDS011;64005;55.160;36.002;2023-04-12T15:14:58;11.98;;;6.25;;
75423;SDS011;64005;55.160;36.002;2023-04-12T15:17:31;12.55;;;6.28;;
75423;SDS011;64005;55.160;36.002;2023-04-12T15:20:11;10.05;;;5.97;;
75423;SDS011;64005;55.160;36.002;2023-04-12T15:22:45;12.27;;;6.20;;
75423;SDS011;64005;55.160;36.002;2023-04-12T15:25:22;11.25;;;6.05;;
75423;SDS011;64005;55.160;36.002;2023-04-12T15:27:56;11.77;;;5.53;;
75423;SDS011;64005;55.160;36.002;2023-04-12T15:30:29;11.35;;;5.95;;
75423;SDS011;64005;55.160;36.002;2023-04-12T15:33:12;12.80;;;6.50;;
75423;SDS011;64005;55.160;36.002;2023-04-12T15:35:45;11.60;;;6.20;;
75423;SDS011;64005;55.160;36.002;2023-04-12T15:38:18;12.77;;;6.80;;
75423;SDS011;64005;55.160;36.002;2023-04-12T15:40:52;17.30;;;8.23;;
75423;SDS011;64005;55.160;36.002;2023-04-12T15:43:24;19.15;;;9.35;;
75423;SDS011;64005;55.160;36.002;2023-04-12T15:45:56;27.63;;;10.93;;
75423;SDS011;64005;55.160;36.002;2023-04-12T15:48:27;22.35;;;10.88;;
75423;SDS011;64005;55.160;36.002;2023-04-12T15:51:00;33.22;;;13.65;;
75423;SDS011;64005;55.160;36.002;2023-04-12T15:53:30;37.78;;;15.15;;
75423;SDS011;64005;55.160;36.002;2023-04-12T15:56:02;40.20;;;15.90;;
75423;SDS011;64005;55.160;36.002;2023-04-12T15:58:35;31.65;;;14.18;;
75423;SDS011;64005;55.160;36.002;2023-04-12T16:01:07;19.80;;;9.35;;
75423;SDS011;64005;55.160;36.002;2023-04-12T16:03:46;13.00;;;7.03;;
75423;SDS011;64005;55.160;36.002;2023-04-12T16:06:17;13.48;;;6.55;;
75423;SDS011;64005;55.160;36.002;2023-04-12T16:08:47;13.45;;;6.28;;
75423;SDS011;64005;55.160;36.002;2023-04-12T16:13:50;13.30;;;6.90;;
75423;SDS011;64005;55.160;36.002;2023-04-12T16:16:22;12.75;;;6.20;;
75423;SDS011;64005;55.160;36.002;2023-04-12T16:18:52;15.15;;;7.55;;
75423;SDS011;64005;55.160;36.002;2023-04-12T16:21:24;13.27;;;7.65;;
75423;SDS011;64005;55.160;36.002;2023-04-12T16:24:01;13.85;;;6.47;;
75423;SDS011;64005;55.160;36.002;2023-04-12T16:26:34;14.30;;;6.68;;
75423;SDS011;64005;55.160;36.002;2023-04-12T16:29:07;12.98;;;6.43;;
75423;SDS011;64005;55.160;36.002;2023-04-12T16:31:39;13.15;;;6.25;;
75423;SDS011;64005;55.160;36.002;2023-04-12T16:34:08;15.35;;;7.28;;
75423;SDS011;64005;55.160;36.002;2023-04-12T16:36:43;13.05;;;6.53;;
75423;SDS011;64005;55.160;36.002;2023-04-12T16:39:15;14.80;;;6.70;;
75423;SDS011;64005;55.160;36.002;2023-04-12T16:41:45;12.32;;;6.22;;
75423;SDS011;64005;55.160;36.002;2023-04-12T16:44:16;15.20;;;6.32;;
75423;SDS011;64005;55.160;36.002;2023-04-12T16:46:47;13.90;;;6.05;;
75423;SDS011;64005;55.160;36.002;2023-04-12T16:49:19;10.05;;;5.97;;
75423;SDS011;64005;55.160;36.002;2023-04-12T16:51:50;18.33;;;6.85;;
75423;SDS011;64005;55.160;36.002;2023-04-12T16:54:19;13.82;;;6.72;;
75423;SDS011;64005;55.160;36.002;2023-04-12T16:56:47;14.63;;;6.25;;
75423;SDS011;64005;55.160;36.002;2023-04-12T16:59:15;12.02;;;6.18;;
75423;SDS011;64005;55.160;36.002;2023-04-12T17:01:42;13.07;;;6.25;;
75423;SDS011;64005;55.160;36.002;2023-04-12T17:04:10;12.20;;;6.40;;
75423;SDS011;64005;55.160;36.002;2023-04-12T17:06:38;13.15;;;6.30;;
75423;SDS011;64005;55.160;36.002;2023-04-12T17:09:08;12.18;;;5.95;;
75423;SDS011;64005;55.160;36.002;2023-04-12T17:11:36;11.98;;;6.07;;
75423;SDS011;64005;55.160;36.002;2023-04-12T17:14:03;14.30;;;6.30;;
75423;SDS011;64005;55.160;36.002;2023-04-12T17:16:32;11.35;;;5.65;;
75423;SDS011;64005;55.160;36.002;2023-04-12T17:19:00;12.07;;;5.38;;
75423;SDS011;64005;55.160;36.002;2023-04-12T17:21:27;11.00;;;5.45;;
75423;SDS011;64005;55.160;36.002;2023-04-12T17:23:55;9.68;;;5.25;;
75423;SDS011;64005;55.160;36.002;2023-04-12T17:26:26;11.07;;;5.72;;
75423;SDS011;64005;55.160;36.002;2023-04-12T17:28:54;10.75;;;6.07;;
75423;SDS011;64005;55.160;36.002;2023-04-12T17:31:23;11.55;;;5.63;;
75423;SDS011;64005;55.160;36.002;2023-04-12T17:33:52;12.65;;;6.05;;
75423;SDS011;64005;55.160;36.002;2023-04-12T17:36:19;12.57;;;6.13;;
75423;SDS011;64005;55.160;36.002;2023-04-12T17:38:47;10.40;;;5.25;;
75423;SDS011;64005;55.160;36.002;2023-04-12T17:41:14;11.70;;;5.57;;
75423;SDS011;64005;55.160;36.002;2023-04-12T17:43:43;13.80;;;5.90;;
75423;SDS011;64005;55.160;36.002;2023-04-12T17:46:11;11.32;;;5.70;;
75423;SDS011;64005;55.160;36.002;2023-04-12T17:48:39;12.90;;;5.75;;
75423;SDS011;64005;55.160;36.002;2023-04-12T17:51:06;11.68;;;4.97;;
75423;SDS011;64005;55.160;36.002;2023-04-12T17:53:34;11.23;;;5.20;;
75423;SDS011;64005;55.160;36.002;2023-04-12T17:56:01;9.18;;;4.85;;
75423;SDS011;64005;55.160;36.002;2023-04-12T17:58:29;11.82;;;5.97;;
75423;SDS011;64005;55.160;36.002;2023-04-12T18:00:59;8.75;;;5.18;;
75423;SDS011;64005;55.160;36.002;2023-04-12T18:03:26;14.38;;;5.25;;
75423;SDS011;64005;55.160;36.002;2023-04-12T18:05:54;11.30;;;5.55;;
75423;SDS011;64005;55.160;36.002;2023-04-12T18:08:23;10.45;;;5.20;;
75423;SDS011;64005;55.160;36.002;2023-04-12T18:10:50;15.13;;;5.65;;
75423;SDS011;64005;55.160;36.002;2023-04-12T18:13:18;11.77;;;6.18;;
75423;SDS011;64005;55.160;36.002;2023-04-12T18:15:46;13.10;;;5.90;;
75423;SDS011;64005;55.160;36.002;2023-04-12T18:18:17;10.63;;;5.32;;
75423;SDS011;64005;55.160;36.002;2023-04-12T18:20:45;13.48;;;6.03;;
75423;SDS011;64005;55.160;36.002;2023-04-12T18:23:12;10.95;;;5.68;;
75423;SDS011;64005;55.160;36.002;2023-04-12T18:25:39;14.13;;;5.60;;
75423;SDS011;64005;55.160;36.002;2023-04-12T18:28:07;10.68;;;5.60;;
75423;SDS011;64005;55.160;36.002;2023-04-12T18:30:35;12.15;;;5.75;;
75423;SDS011;64005;55.160;36.002;2023-04-12T18:33:03;11.15;;;5.70;;
75423;SDS011;64005;55.160;36.002;2023-04-12T18:35:33;11.88;;;5.68;;
75423;SDS011;64005;55.160;36.002;2023-04-12T18:38:03;13.68;;;5.68;;
75423;SDS011;64005;55.160;36.002;2023-04-12T18:40:34;13.32;;;5.57;;
75423;SDS011;64005;55.160;36.002;2023-04-12T18:43:08;14.07;;;6.63;;
75423;SDS011;64005;55.160;36.002;2023-04-12T18:45:37;10.60;;;5.72;;
75423;SDS011;64005;55.160;36.002;2023-04-12T18:48:05;11.27;;;5.40;;
75423;SDS011;64005;55.160;36.002;2023-04-12T18:50:35;12.85;;;5.97;;
75423;SDS011;64005;55.160;36.002;2023-04-12T18:53:04;11.00;;;5.88;;
75423;SDS011;64005;55.160;36.002;2023-04-12T18:55:32;13.98;;;5.68;;
75423;SDS011;64005;55.160;36.002;2023-04-12T18:57:59;14.15;;;5.85;;
75423;SDS011;64005;55.160;36.002;2023-04-12T19:00:27;13.65;;;6.30;;
75423;SDS011;64005;55.160;36.002;2023-04-12T19:02:54;11.75;;;6.55;;
75423;SDS011;64005;55.160;36.002;2023-04-12T19:05:22;12.63;;;5.60;;
75423;SDS011;64005;55.160;36.002;2023-04-12T19:07:50;15.48;;;6.32;;
75423;SDS011;64005;55.160;36.002;2023-04-12T19:10:18;13.45;;;5.43;;
75423;SDS011;64005;55.160;36.002;2023-04-12T19:12:52;19.92;;;6.55;;
75423;SDS011;64005;55.160;36.002;2023-04-12T19:15:19;12.60;;;6.30;;
75423;SDS011;64005;55.160;36.002;2023-04-12T19:17:47;12.10;;;5.40;;
75423;SDS011;64005;55.160;36.002;2023-04-12T19:20:14;16.13;;;6.63;;
75423;SDS011;64005;55.160;36.002;2023-04-12T19:22:42;11.57;;;5.72;;
75423;SDS011;64005;55.160;36.002;2023-04-12T19:25:11;11.55;;;5.88;;
75423;SDS011;64005;55.160;36.002;2023-04-12T19:27:38;13.40;;;5.93;;
75423;SDS011;64005;55.160;36.002;2023-04-12T19:30:06;12.93;;;5.75;;
75423;SDS011;64005;55.160;36.002;2023-04-12T19:32:37;16.00;;;6.10;;
75423;SDS011;64005;55.160;36.002;2023-04-12T19:35:05;13.50;;;5.95;;
75423;SDS011;64005;55.160;36.002;2023-04-12T19:37:34;15.32;;;5.65;;
75423;SDS011;64005;55.160;36.002;2023-04-12T19:40:01;12.27;;;6.07;;
75423;SDS011;64005;55.160;36.002;2023-04-12T19:42:31;21.65;;;6.05;;
75423;SDS011;64005;55.160;36.002;2023-04-12T19:44:58;11.85;;;5.65;;
75423;SDS011;64005;55.160;36.002;2023-04-12T19:47:26;15.73;;;5.35;;
75423;SDS011;64005;55.160;36.002;2023-04-12T19:49:54;11.27;;;5.70;;
75423;SDS011;64005;55.160;36.002;2023-04-12T19:52:22;12.35;;;6.10;;
75423;SDS011;64005;55.160;36.002;2023-04-12T19:54:51;11.43;;;5.18;;
75423;SDS011;64005;55.160;36.002;2023-04-12T19:57:21;13.00;;;6.47;;
75423;SDS011;64005;55.160;36.002;2023-04-12T19:59:50;12.57;;;5.72;;
75423;SDS011;64005;55.160;36.002;2023-04-12T20:02:18;15.10;;;5.53;;
75423;SDS011;64005;55.160;36.002;2023-04-12T20:04:45;13.40;;;5.22;;
75423;SDS011;64005;55.160;36.002;2023-04-12T20:07:13;14.30;;;5.97;;
75423;SDS011;64005;55.160;36.002;2023-04-12T20:09:40;16.38;;;5.85;;
75423;SDS011;64005;55.160;36.002;2023-04-12T20:12:08;11.85;;;5.63;;
75423;SDS011;64005;55.160;36.002;2023-04-12T20:14:35;14.60;;;5.43;;
75423;SDS011;64005;55.160;36.002;2023-04-12T20:17:05;14.25;;;5.82;;
75423;SDS011;64005;55.160;36.002;2023-04-12T20:19:33;11.45;;;5.50;;
75423;SDS011;64005;55.160;36.002;2023-04-12T20:22:00;12.65;;;5.47;;
75423;SDS011;64005;55.160;36.002;2023-04-12T20:24:28;12.90;;;6.00;;
75423;SDS011;64005;55.160;36.002;2023-04-12T20:26:58;12.00;;;6.35;;
75423;SDS011;64005;55.160;36.002;2023-04-12T20:29:28;15.02;;;6.18;;
75423;SDS011;64005;55.160;36.002;2023-04-12T20:31:56;15.73;;;5.97;;
75423;SDS011;64005;55.160;36.002;2023-04-12T20:34:25;14.30;;;5.75;;
75423;SDS011;64005;55.160;36.002;2023-04-12T20:36:53;14.25;;;6.15;;
75423;SDS011;64005;55.160;36.002;2023-04-12T20:39:21;13.43;;;6.05;;
75423;SDS011;64005;55.160;36.002;2023-04-12T20:41:48;11.35;;;5.40;;
75423;SDS011;64005;55.160;36.002;2023-04-12T20:44:19;14.55;;;6.65;;
75423;SDS011;64005;55.160;36.002;2023-04-12T20:46:46;11.50;;;5.32;;
75423;SDS011;64005;55.160;36.002;2023-04-12T20:49:14;14.63;;;6.35;;
75423;SDS011;64005;55.160;36.002;2023-04-12T20:51:43;13.50;;;5.38;;
75423;SDS011;64005;55.160;36.002;2023-04-12T20:54:12;13.82;;;5.63;;
75423;SDS011;64005;55.160;36.002;2023-04-12T20:56:39;16.13;;;6.05;;
75423;SDS011;64005;55.160;36.002;2023-04-12T20:59:07;14.10;;;5.82;;
75423;SDS011;64005;55.160;36.002;2023-04-12T21:01:34;12.70;;;5.70;;
75423;SDS011;64005;55.160;36.002;2023-04-12T21:04:02;11.93;;;5.45;;
75423;SDS011;64005;55.160;36.002;2023-04-12T21:06:31;12.05;;;5.43;;
75423;SDS011;64005;55.160;36.002;2023-04-12T21:09:00;13.10;;;5.60;;
75423;SDS011;64005;55.160;36.002;2023-04-12T21:11:30;15.95;;;6.07;;